Wetterdaten: aktuell Donnerstag, 20.02.2020 06:28
Datum Zeit Temp. 2m Temp. 5cm Temp. APlatz Temp. Bachw Feuchte 2m Feuchte AP Feuchte BW Luftdruck Regen Wind Richtung Richtung Taupunkt Windchill Windben
20.02.2020 06:28 -5,1 C -7,7 C -5,1 C -4,6 C 90 % 82 % 90 % 1021,7 hPa 0,0 l/m 0,3 km/h (0 Bft) W-NW 292 -6,0 C -5,1 C 2,9 km/h (1 Bft)
20.02.2020 06:26 -5,4 C -7,7 C -5,4 C -4,6 C 90 % 82 % 90 % 1021,7 hPa 0,0 l/m 0,2 km/h (0 Bft) NW 315 -6,0 C -5,4 C 2,4 km/h (1 Bft)
20.02.2020 06:24 -5,5 C -7,5 C -5,5 C -4,6 C 90 % 82 % 90 % 1021,7 hPa 0,0 l/m 0,2 km/h (0 Bft) N-NO 22 -6,0 C -5,5 C 0,0 km/h (0 Bft)
20.02.2020 06:22 -5,4 C -7,8 C -5,4 C -4,6 C 90 % 82 % 90 % 1021,7 hPa 0,0 l/m 0,3 km/h (0 Bft) N-NW 337 -6,0 C -5,4 C 0,0 km/h (0 Bft)
20.02.2020 06:20 -5,1 C -7,5 C -5,1 C -4,6 C 90 % 82 % 90 % 1021,7 hPa 0,0 l/m 0,3 km/h (0 Bft) N-NW 337 -6,0 C -5,1 C 0,0 km/h (0 Bft)
20.02.2020 06:18 -5,5 C -7,5 C -5,5 C -4,5 C 89 % 82 % 89 % 1021,7 hPa 0,0 l/m 0,3 km/h (0 Bft) N-NW 337 -6,0 C -5,5 C 0,0 km/h (0 Bft)
20.02.2020 06:16 -5,5 C -7,7 C -5,5 C -4,4 C 89 % 82 % 89 % 1021,7 hPa 0,0 l/m 0,3 km/h (0 Bft) NO 45 -5,9 C -5,5 C 2,4 km/h (1 Bft)
20.02.2020 06:14 -5,4 C -7,8 C -5,4 C -4,2 C 89 % 82 % 89 % 1021,7 hPa 0,0 l/m 0,3 km/h (0 Bft) N-NW 337 -5,7 C -5,4 C 2,4 km/h (1 Bft)
20.02.2020 06:12 -5,5 C -7,8 C -5,5 C -4,2 C 89 % 82 % 89 % 1021,7 hPa 0,0 l/m 0,2 km/h (0 Bft) NO 45 -5,7 C -5,5 C 0,0 km/h (0 Bft)
20.02.2020 06:10 -4,8 C -7,5 C -4,8 C -3,0 C 89 % 82 % 89 % 1021,7 hPa 0,0 l/m 0,6 km/h (0 Bft) N-NW 337 -4,6 C -4,8 C 0,0 km/h (0 Bft)
20.02.2020 06:08 -4,8 C -7,5 C -4,8 C -3,0 C 89 % 82 % 89 % 1021,7 hPa 0,0 l/m 0,6 km/h (0 Bft) N-NW 337 -4,6 C -4,8 C 0,0 km/h (0 Bft)
20.02.2020 06:06 -4,8 C -7,5 C -4,8 C -3,0 C 89 % 82 % 89 % 1021,7 hPa 0,0 l/m 0,6 km/h (0 Bft) N-NW 337 -4,6 C -4,8 C 0,0 km/h (0 Bft)
20.02.2020 06:04 -4,8 C -7,5 C -4,8 C -3,0 C 89 % 82 % 89 % 1021,7 hPa 0,0 l/m 0,6 km/h (0 Bft) N-NW 337 -4,6 C -4,8 C 0,0 km/h (0 Bft)
20.02.2020 06:02 -4,8 C -7,5 C -4,8 C -3,0 C 89 % 82 % 89 % 1021,7 hPa 0,0 l/m 0,6 km/h (0 Bft) N-NW 337 -4,6 C -4,8 C 0,0 km/h (0 Bft)
20.02.2020 06:00 -4,8 C -7,5 C -4,8 C -3,0 C 89 % 82 % 89 % 1021,7 hPa 0,0 l/m 0,6 km/h (0 Bft) N-NW 337 -4,6 C -4,8 C 0,0 km/h (0 Bft)
20.02.2020 05:58 -4,4 C -7,1 C -4,4 C -2,9 C 89 % 82 % 89 % 1021,6 hPa 0,0 l/m 1,1 km/h (1 Bft) N-NW 337 -4,5 C -4,4 C 0,0 km/h (0 Bft)
20.02.2020 05:56 -4,5 C -6,3 C -4,5 C -2,6 C 89 % 82 % 89 % 1021,6 hPa 0,0 l/m 1,4 km/h (1 Bft) W-NW 292 -4,2 C -4,5 C 2,9 km/h (1 Bft)
20.02.2020 05:54 -4,5 C -6,0 C -4,5 C -2,6 C 89 % 82 % 89 % 1021,6 hPa 0,0 l/m 1,3 km/h (1 Bft) SW 225 -4,2 C -4,5 C 3,6 km/h (1 Bft)
20.02.2020 05:52 -4,7 C -6,2 C -4,7 C -2,4 C 89 % 82 % 89 % 1021,6 hPa 0,0 l/m 1,1 km/h (1 Bft) S 180 -4,0 C -4,7 C 3,6 km/h (1 Bft)
20.02.2020 05:50 -4,3 C -5,7 C -4,3 C -2,2 C 90 % 82 % 90 % 1021,6 hPa 0,0 l/m 1,3 km/h (1 Bft) S-SO 157 -3,6 C -4,3 C 3,9 km/h (1 Bft)
20.02.2020 05:48 -3,3 C -5,7 C -3,3 C -2,2 C 90 % 82 % 90 % 1021,6 hPa 0,0 l/m 1,4 km/h (1 Bft) SO 135 -3,6 C -3,3 C 3,9 km/h (1 Bft)
20.02.2020 05:46 -3,3 C -5,8 C -3,3 C -2,2 C 90 % 82 % 90 % 1021,6 hPa 0,0 l/m 1,6 km/h (1 Bft) S 180 -3,6 C -3,3 C 2,7 km/h (1 Bft)
20.02.2020 05:44 -3,1 C -6,0 C -3,1 C -2,1 C 89 % 82 % 89 % 1021,6 hPa 0,0 l/m 1,8 km/h (1 Bft) S 180 -3,7 C -3,1 C 2,7 km/h (1 Bft)
20.02.2020 05:42 -2,7 C -5,5 C -2,7 C -2,0 C 89 % 82 % 89 % 1021,6 hPa 0,0 l/m 2,3 km/h (1 Bft) S 180 -3,6 C -2,7 C 4,1 km/h (1 Bft)
20.02.2020 05:40 -2,7 C -5,3 C -2,7 C -2,0 C 89 % 82 % 89 % 1021,6 hPa 0,0 l/m 2,9 km/h (1 Bft) S 180 -3,6 C -2,7 C 5,1 km/h (1 Bft)
20.02.2020 05:38 -2,7 C -5,0 C -2,7 C -1,8 C 89 % 82 % 89 % 1021,3 hPa 0,0 l/m 2,6 km/h (1 Bft) S-SW 202 -3,4 C -2,7 C 5,1 km/h (1 Bft)
20.02.2020 05:36 -2,7 C -5,3 C -2,7 C -2,0 C 89 % 82 % 89 % 1021,3 hPa 0,0 l/m 2,4 km/h (1 Bft) S-SW 202 -3,6 C -2,7 C 4,6 km/h (1 Bft)
20.02.2020 05:34 -2,7 C -5,3 C -2,7 C -1,8 C 89 % 82 % 89 % 1021,3 hPa 0,0 l/m 2,4 km/h (1 Bft) S 180 -3,4 C -2,7 C 4,6 km/h (1 Bft)
20.02.2020 05:32 -2,9 C -5,5 C -2,9 C -1,8 C 89 % 82 % 89 % 1021,3 hPa 0,0 l/m 2,4 km/h (1 Bft) W-SW 247 -3,4 C -2,9 C 9,2 km/h (2 Bft)
20.02.2020 05:30 -2,9 C -5,5 C -2,9 C -1,8 C 89 % 82 % 89 % 1021,3 hPa 0,0 l/m 2,1 km/h (1 Bft) W 270 -3,4 C -2,9 C 9,2 km/h (2 Bft)
20.02.2020 05:28 -2,8 C -5,5 C -2,8 C -1,6 C 89 % 82 % 89 % 1021,3 hPa 0,0 l/m 1,9 km/h (1 Bft) S 180 -3,2 C -2,8 C 3,1 km/h (1 Bft)
20.02.2020 05:26 -2,6 C -5,3 C -2,6 C -1,4 C 89 % 82 % 89 % 1021,3 hPa 0,0 l/m 2,1 km/h (1 Bft) S-SW 202 -3,0 C -2,6 C 4,6 km/h (1 Bft)
20.02.2020 05:24 -2,2 C -4,9 C -2,2 C -1,4 C 89 % 82 % 89 % 1021,3 hPa 0,0 l/m 1,8 km/h (1 Bft) S-SW 202 -3,0 C -2,2 C 4,6 km/h (1 Bft)
20.02.2020 05:22 -2,1 C -5,1 C -2,1 C -1,4 C 89 % 82 % 89 % 1021,3 hPa 0,0 l/m 1,4 km/h (1 Bft) S-SW 202 -3,0 C -2,1 C 4,6 km/h (1 Bft)
20.02.2020 05:20 -1,8 C -5,0 C -1,8 C -1,4 C 89 % 82 % 89 % 1021,3 hPa 0,0 l/m 1,1 km/h (1 Bft) SW 225 -3,0 C -1,8 C 4,6 km/h (1 Bft)
20.02.2020 05:18 -2,2 C -4,4 C -2,2 C -1,3 C 89 % 82 % 89 % 1021,3 hPa 0,0 l/m 0,8 km/h (0 Bft) S 180 -2,9 C -2,2 C 4,1 km/h (1 Bft)
20.02.2020 05:16 -2,0 C -4,4 C -2,0 C -1,2 C 89 % 82 % 89 % 1021,3 hPa 0,0 l/m 0,6 km/h (0 Bft) NW 315 -2,8 C -2,0 C 3,4 km/h (1 Bft)
20.02.2020 05:14 -1,8 C -4,9 C -1,8 C -1,2 C 89 % 82 % 89 % 1021,3 hPa 0,0 l/m 1,1 km/h (1 Bft) SO 135 -2,8 C -1,8 C 0,0 km/h (0 Bft)
20.02.2020 05:12 -2,0 C -5,3 C -2,0 C -1,3 C 89 % 82 % 89 % 1021,3 hPa 0,0 l/m 1,4 km/h (1 Bft) W 270 -2,9 C -2,0 C 0,0 km/h (0 Bft)
20.02.2020 05:10 -1,7 C -5,3 C -1,7 C -1,3 C 89 % 82 % 89 % 1021,3 hPa 0,0 l/m 2,1 km/h (1 Bft) N-NW 337 -2,9 C -1,7 C 0,0 km/h (0 Bft)
20.02.2020 05:08 -2,0 C -4,4 C -2,0 C -1,2 C 89 % 82 % 89 % 1021,3 hPa 0,0 l/m 2,3 km/h (1 Bft) W-NW 292 -2,8 C -2,0 C 3,4 km/h (1 Bft)
20.02.2020 05:06 -2,0 C -4,4 C -2,0 C -1,0 C 89 % 82 % 89 % 1021,3 hPa 0,0 l/m 2,4 km/h (1 Bft) SW 225 -2,6 C -2,0 C 7,0 km/h (2 Bft)
20.02.2020 05:04 -1,7 C -4,2 C -1,7 C -1,0 C 89 % 82 % 89 % 1021,3 hPa 0,0 l/m 2,9 km/h (1 Bft) W-SW 247 -2,6 C -1,7 C 9,4 km/h (2 Bft)
20.02.2020 05:02 -1,4 C -4,7 C -1,4 C -1,2 C 89 % 82 % 89 % 1021,3 hPa 0,0 l/m 2,6 km/h (1 Bft) W 270 -2,8 C -1,4 C 9,4 km/h (2 Bft)
20.02.2020 05:00 -1,3 C -5,4 C -1,3 C -1,2 C 89 % 82 % 89 % 1021,3 hPa 0,0 l/m 1,6 km/h (1 Bft) W-SW 247 -2,8 C -1,3 C 6,8 km/h (2 Bft)
20.02.2020 04:58 -1,7 C -5,3 C -1,7 C -1,2 C 88 % 82 % 88 % 1021,2 hPa 0,0 l/m 1,4 km/h (1 Bft) S-SW 202 -2,9 C -1,7 C 3,1 km/h (1 Bft)
20.02.2020 04:56 -1,7 C -5,0 C -1,7 C -1,0 C 89 % 82 % 89 % 1021,2 hPa 0,0 l/m 1,8 km/h (1 Bft) W-SW 247 -2,6 C -1,7 C 2,9 km/h (1 Bft)
20.02.2020 04:54 -1,6 C -5,3 C -1,6 C -1,0 C 88 % 82 % 88 % 1021,2 hPa 0,0 l/m 0,6 km/h (0 Bft) S-SW 202 -2,7 C -1,6 C 3,6 km/h (1 Bft)
20.02.2020 04:52 -1,6 C -5,6 C -1,6 C -1,0 C 88 % 82 % 88 % 1021,2 hPa 0,0 l/m 0,8 km/h (0 Bft) W-SW 247 -2,7 C -1,6 C 3,6 km/h (1 Bft)
20.02.2020 04:50 -1,7 C -5,6 C -1,7 C -0,8 C 88 % 82 % 88 % 1021,2 hPa 0,0 l/m 1,0 km/h (0 Bft) S-SW 202 -2,5 C -1,7 C 2,7 km/h (1 Bft)
20.02.2020 04:48 -1,4 C -5,0 C -1,4 C -0,8 C 88 % 82 % 88 % 1021,2 hPa 0,0 l/m 1,6 km/h (1 Bft) W-SW 247 -2,5 C -1,4 C 0,0 km/h (0 Bft)
20.02.2020 04:46 -1,3 C -5,2 C -1,3 C -0,6 C 88 % 82 % 88 % 1021,2 hPa 0,0 l/m 1,6 km/h (1 Bft) W-SW 247 -2,3 C -1,3 C 0,0 km/h (0 Bft)
20.02.2020 04:44 -1,1 C -4,5 C -1,1 C -0,7 C 88 % 82 % 88 % 1021,2 hPa 0,0 l/m 2,3 km/h (1 Bft) SW 225 -2,4 C -1,1 C 3,1 km/h (1 Bft)
20.02.2020 04:42 -0,8 C -3,9 C -0,8 C -0,6 C 88 % 82 % 88 % 1021,2 hPa 0,0 l/m 2,7 km/h (1 Bft) NO 45 -2,3 C -0,8 C 6,0 km/h (2 Bft)
20.02.2020 04:40 -0,7 C -3,7 C -0,7 C -0,4 C 88 % 82 % 88 % 1021,2 hPa 0,0 l/m 2,7 km/h (1 Bft) W-NW 292 -2,1 C -0,7 C 9,4 km/h (2 Bft)
20.02.2020 04:38 -0,8 C -3,5 C -0,8 C -0,4 C 88 % 82 % 88 % 1021,1 hPa 0,0 l/m 2,6 km/h (1 Bft) W 270 -2,1 C -0,8 C 9,4 km/h (2 Bft)
20.02.2020 04:36 -0,5 C -3,5 C -0,5 C -0,5 C 88 % 82 % 88 % 1021,1 hPa 0,0 l/m 2,4 km/h (1 Bft) W-NW 292 -2,2 C -0,5 C 6,0 km/h (2 Bft)
20.02.2020 04:34 -0,8 C -3,4 C -0,8 C -0,5 C 88 % 82 % 88 % 1021,1 hPa 0,0 l/m 2,6 km/h (1 Bft) W 270 -2,2 C -0,8 C 6,0 km/h (2 Bft)
20.02.2020 04:32 -0,8 C -3,4 C -0,8 C -0,4 C 88 % 82 % 88 % 1021,1 hPa 0,0 l/m 2,7 km/h (1 Bft) W 270 -2,1 C -0,8 C 4,6 km/h (1 Bft)
20.02.2020 04:30 -0,7 C -3,9 C -0,7 C -0,4 C 88 % 82 % 88 % 1021,1 hPa 0,0 l/m 3,2 km/h (1 Bft) W-SW 247 -2,1 C -0,7 C 3,9 km/h (1 Bft)
20.02.2020 04:28 -0,2 C -3,7 C -0,1 C -0,2 C 87 % 82 % 87 % 1021,1 hPa 0,0 l/m 3,9 km/h (1 Bft) W-NW 292 -2,1 C -0,2 C 5,1 km/h (1 Bft)
20.02.2020 04:26 -0,2 C -3,3 C -0,1 C -0,2 C 87 % 82 % 87 % 1021,1 hPa 0,0 l/m 4,5 km/h (1 Bft) W-NW 292 -2,1 C -0,2 C 5,1 km/h (1 Bft)
20.02.2020 04:24 -0,3 C -2,9 C -0,3 C -0,2 C 87 % 82 % 87 % 1021,1 hPa 0,0 l/m 4,8 km/h (1 Bft) N-NW 337 -2,1 C -1,8 C 6,3 km/h (2 Bft)
20.02.2020 04:22 -0,4 C -2,6 C -0,4 C -0,1 C 87 % 82 % 87 % 1021,1 hPa 0,0 l/m 5,3 km/h (1 Bft) W-NW 292 -2,0 C -2,2 C 6,3 km/h (2 Bft)
20.02.2020 04:20 -0,3 C -2,7 C -0,3 C -0,2 C 87 % 82 % 87 % 1021,1 hPa 0,0 l/m 5,5 km/h (1 Bft) W-SW 247 -2,1 C -2,2 C 7,7 km/h (2 Bft)
20.02.2020 04:18 -0,1 C -2,7 C -0,1 C -0,1 C 87 % 82 % 87 % 1021,1 hPa 0,0 l/m 6,0 km/h (2 Bft) W-NW 292 -2,0 C -2,1 C 8,4 km/h (2 Bft)
20.02.2020 04:16 -0,1 C -2,6 C -0,1 C -0,1 C 87 % 82 % 87 % 1021,1 hPa 0,0 l/m 6,1 km/h (2 Bft) W-NW 292 -2,0 C -2,2 C 16,7 km/h (3 Bft)
20.02.2020 04:14 0,0 C -2,6 C 0,0 C 0,0 C 87 % 82 % 87 % 1021,1 hPa 0,0 l/m 6,0 km/h (2 Bft) N-NW 337 -1,9 C -2,0 C 16,7 km/h (3 Bft)
20.02.2020 04:12 -0,1 C -2,5 C 0,0 C -0,1 C 87 % 82 % 87 % 1021,1 hPa 0,0 l/m 4,0 km/h (1 Bft) W-NW 292 -2,0 C -0,1 C 12,6 km/h (3 Bft)
20.02.2020 04:10 -0,1 C -2,5 C 0,2 C -0,1 C 87 % 82 % 87 % 1021,1 hPa 0,0 l/m 3,7 km/h (1 Bft) NW 315 -2,0 C -0,1 C 14,2 km/h (3 Bft)
20.02.2020 04:08 -0,1 C -2,6 C 0,0 C -0,1 C 87 % 82 % 87 % 1021,1 hPa 0,0 l/m 3,2 km/h (1 Bft) W 270 -2,0 C -0,1 C 14,2 km/h (3 Bft)
20.02.2020 04:06 -0,1 C -3,1 C 0,1 C -0,1 C 87 % 82 % 87 % 1021,1 hPa 0,0 l/m 2,7 km/h (1 Bft) W-NW 292 -2,0 C -0,1 C 10,6 km/h (2 Bft)
20.02.2020 04:04 -0,1 C -3,7 C 0,2 C -0,1 C 87 % 82 % 87 % 1021,1 hPa 0,0 l/m 2,6 km/h (1 Bft) N 360 -2,0 C -0,1 C 8,0 km/h (2 Bft)
20.02.2020 04:02 -0,1 C -4,1 C 0,2 C -0,1 C 87 % 82 % 87 % 1021,1 hPa 0,0 l/m 2,6 km/h (1 Bft) W-NW 292 -2,0 C -0,1 C 0,0 km/h (0 Bft)
20.02.2020 04:00 0,1 C -3,1 C 0,1 C 0,2 C 87 % 82 % 87 % 1021,1 hPa 0,0 l/m 4,0 km/h (1 Bft) NW 315 -1,7 C 0,1 C 4,1 km/h (1 Bft)
20.02.2020 03:58 0,0 C -2,5 C 0,0 C 0,2 C 87 % 82 % 87 % 1021,2 hPa 0,0 l/m 4,3 km/h (1 Bft) W-NW 292 -1,7 C 0,0 C 4,1 km/h (1 Bft)
20.02.2020 03:56 0,1 C -2,6 C 0,1 C 0,2 C 87 % 82 % 87 % 1021,2 hPa 0,0 l/m 5,5 km/h (1 Bft) S-SW 202 -1,7 C -1,7 C 5,1 km/h (1 Bft)
20.02.2020 03:54 0,2 C -2,1 C 0,2 C 0,3 C 87 % 82 % 87 % 1021,2 hPa 0,0 l/m 6,0 km/h (2 Bft) W 270 -1,6 C -1,8 C 13,3 km/h (3 Bft)
20.02.2020 03:52 0,2 C -2,1 C 0,2 C 0,3 C 87 % 82 % 87 % 1021,2 hPa 0,0 l/m 6,6 km/h (2 Bft) W-SW 247 -1,6 C -2,0 C 13,3 km/h (3 Bft)
20.02.2020 03:50 0,3 C -1,9 C 0,4 C 0,3 C 87 % 82 % 87 % 1021,2 hPa 0,0 l/m 6,6 km/h (2 Bft) W-SW 247 -1,6 C -1,9 C 13,3 km/h (3 Bft)
20.02.2020 03:48 0,4 C -1,4 C 0,5 C 0,4 C 87 % 82 % 87 % 1021,2 hPa 0,0 l/m 6,6 km/h (2 Bft) W-NW 292 -1,5 C -1,8 C 15,0 km/h (3 Bft)
20.02.2020 03:46 0,4 C -1,5 C 0,5 C 0,4 C 87 % 82 % 87 % 1021,2 hPa 0,0 l/m 5,6 km/h (1 Bft) W 270 -1,5 C -1,4 C 15,0 km/h (3 Bft)
20.02.2020 03:44 0,4 C -1,4 C 0,5 C 0,4 C 87 % 82 % 87 % 1021,2 hPa 0,0 l/m 4,8 km/h (1 Bft) W 270 -1,5 C -1,0 C 12,6 km/h (3 Bft)
20.02.2020 03:42 0,3 C -1,1 C 0,6 C 0,3 C 87 % 82 % 87 % 1021,2 hPa 0,0 l/m 4,8 km/h (1 Bft) W 270 -1,6 C -1,2 C 12,6 km/h (3 Bft)
20.02.2020 03:40 0,3 C -1,1 C 0,5 C 0,3 C 87 % 82 % 87 % 1021,2 hPa 0,0 l/m 3,7 km/h (1 Bft) W 270 -1,6 C 0,3 C 10,9 km/h (2 Bft)
20.02.2020 03:38 0,3 C -1,2 C 0,5 C 0,3 C 87 % 82 % 87 % 1021,1 hPa 0,0 l/m 3,1 km/h (1 Bft) W-SW 247 -1,6 C 0,3 C 9,2 km/h (2 Bft)
20.02.2020 03:36 0,3 C -1,1 C 0,5 C 0,3 C 87 % 82 % 87 % 1021,1 hPa 0,0 l/m 3,1 km/h (1 Bft) W-NW 292 -1,6 C 0,3 C 9,2 km/h (2 Bft)
20.02.2020 03:34 0,3 C -1,0 C 0,4 C 0,3 C 87 % 82 % 87 % 1021,1 hPa 0,0 l/m 3,2 km/h (1 Bft) W-NW 292 -1,6 C 0,3 C 9,2 km/h (2 Bft)
20.02.2020 03:32 0,2 C -1,1 C 0,4 C 0,2 C 87 % 82 % 87 % 1021,1 hPa 0,0 l/m 3,2 km/h (1 Bft) W 270 -1,7 C 0,2 C 9,2 km/h (2 Bft)
20.02.2020 03:30 0,2 C -1,5 C 0,4 C 0,2 C 88 % 82 % 88 % 1021,1 hPa 0,0 l/m 2,7 km/h (1 Bft) W 270 -1,5 C 0,2 C 2,7 km/h (1 Bft)
20.02.2020 03:28 0,3 C -1,4 C 0,4 C 0,3 C 87 % 82 % 87 % 1021,1 hPa 0,0 l/m 3,4 km/h (1 Bft) W-NW 292 -1,6 C 0,3 C 11,1 km/h (2 Bft)
20.02.2020 03:26 0,3 C -1,4 C 0,4 C 0,3 C 87 % 82 % 87 % 1021,1 hPa 0,0 l/m 3,5 km/h (1 Bft) W 270 -1,6 C 0,3 C 11,1 km/h (2 Bft)
20.02.2020 03:24 0,3 C -1,5 C 0,4 C 0,3 C 87 % 82 % 87 % 1021,1 hPa 0,0 l/m 3,4 km/h (1 Bft) NW 315 -1,6 C 0,3 C 9,4 km/h (2 Bft)
20.02.2020 03:22 0,3 C -1,5 C 0,5 C 0,3 C 87 % 82 % 87 % 1021,1 hPa 0,0 l/m 3,7 km/h (1 Bft) W 270 -1,6 C 0,3 C 9,4 km/h (2 Bft)
20.02.2020 03:20 0,3 C -1,7 C 0,5 C 0,3 C 87 % 82 % 87 % 1021,1 hPa 0,0 l/m 3,9 km/h (1 Bft) W-NW 292 -1,6 C 0,3 C 10,1 km/h (2 Bft)
20.02.2020 03:18 0,3 C -1,2 C 0,5 C 0,3 C 87 % 82 % 87 % 1021,3 hPa 0,0 l/m 3,9 km/h (1 Bft) W-NW 292 -1,6 C 0,3 C 10,1 km/h (2 Bft)
20.02.2020 03:16 0,4 C -1,2 C 0,6 C 0,4 C 87 % 82 % 87 % 1021,3 hPa 0,0 l/m 4,2 km/h (1 Bft) W 270 -1,5 C 0,4 C 8,9 km/h (2 Bft)
20.02.2020 03:14 0,4 C -1,2 C 0,6 C 0,4 C 87 % 82 % 87 % 1021,3 hPa 0,0 l/m 4,0 km/h (1 Bft) N-NW 337 -1,5 C 0,4 C 9,9 km/h (2 Bft)
20.02.2020 03:12 0,4 C -1,1 C 0,6 C 0,4 C 87 % 82 % 87 % 1021,3 hPa 0,0 l/m 4,0 km/h (1 Bft) W-SW 247 -1,5 C 0,4 C 9,9 km/h (2 Bft)
20.02.2020 03:10 0,4 C -1,1 C 0,6 C 0,4 C 87 % 82 % 87 % 1021,3 hPa 0,0 l/m 4,2 km/h (1 Bft) SW 225 -1,5 C 0,4 C 8,0 km/h (2 Bft)
20.02.2020 03:08 0,4 C -0,7 C 0,7 C 0,4 C 87 % 82 % 87 % 1021,3 hPa 0,0 l/m 4,2 km/h (1 Bft) S-SW 202 -1,5 C 0,4 C 8,2 km/h (2 Bft)
20.02.2020 03:06 0,4 C -0,7 C 0,7 C 0,4 C 87 % 82 % 87 % 1021,3 hPa 0,0 l/m 3,5 km/h (1 Bft) W-SW 247 -1,5 C 0,4 C 12,1 km/h (2 Bft)
20.02.2020 03:04 0,4 C -0,7 C 0,7 C 0,4 C 87 % 82 % 87 % 1021,3 hPa 0,0 l/m 2,7 km/h (1 Bft) W-NW 292 -1,5 C 0,4 C 12,1 km/h (2 Bft)
20.02.2020 03:02 0,4 C -0,7 C 0,7 C 0,4 C 87 % 82 % 87 % 1021,3 hPa 0,0 l/m 2,7 km/h (1 Bft) W-NW 292 -1,5 C 0,4 C 12,1 km/h (2 Bft)
20.02.2020 03:00 0,4 C -0,8 C 0,7 C 0,4 C 87 % 82 % 87 % 1021,3 hPa 0,0 l/m 2,7 km/h (1 Bft) W-NW 292 -1,5 C 0,4 C 12,1 km/h (2 Bft)
20.02.2020 02:58 0,3 C -1,0 C 0,7 C 0,3 C 87 % 82 % 87 % 1021,2 hPa 0,0 l/m 2,4 km/h (1 Bft) W-NW 292 -1,6 C 0,3 C 5,1 km/h (1 Bft)
20.02.2020 02:56 0,4 C -1,0 C 0,7 C 0,4 C 87 % 82 % 87 % 1021,2 hPa 0,0 l/m 2,9 km/h (1 Bft) N-NW 337 -1,5 C 0,4 C 0,0 km/h (0 Bft)
20.02.2020 02:54 0,4 C -1,0 C 0,7 C 0,4 C 87 % 82 % 87 % 1021,2 hPa 0,0 l/m 3,7 km/h (1 Bft) W-SW 247 -1,5 C 0,4 C 3,1 km/h (1 Bft)
20.02.2020 02:52 0,4 C -0,8 C 0,7 C 0,4 C 87 % 82 % 87 % 1021,2 hPa 0,0 l/m 4,2 km/h (1 Bft) S-SO 157 -1,5 C 0,4 C 11,1 km/h (2 Bft)
20.02.2020 02:50 0,4 C -0,8 C 0,7 C 0,4 C 87 % 82 % 87 % 1021,2 hPa 0,0 l/m 4,2 km/h (1 Bft) W-NW 292 -1,5 C 0,4 C 11,1 km/h (2 Bft)
20.02.2020 02:48 0,4 C -1,0 C 0,8 C 0,4 C 87 % 82 % 87 % 1021,2 hPa 0,0 l/m 4,3 km/h (1 Bft) W-SW 247 -1,5 C 0,4 C 7,7 km/h (2 Bft)
20.02.2020 02:46 0,3 C -0,8 C 0,8 C 0,3 C 87 % 82 % 87 % 1021,2 hPa 0,0 l/m 4,2 km/h (1 Bft) W-NW 292 -1,6 C 0,3 C 8,2 km/h (2 Bft)
20.02.2020 02:44 0,3 C -0,8 C 0,7 C 0,3 C 87 % 82 % 87 % 1021,2 hPa 0,0 l/m 4,5 km/h (1 Bft) S-SW 202 -1,6 C 0,3 C 8,2 km/h (2 Bft)
20.02.2020 02:42 0,3 C -1,0 C 0,7 C 0,3 C 87 % 82 % 87 % 1021,2 hPa 0,0 l/m 4,8 km/h (1 Bft) W-NW 292 -1,6 C -1,2 C 6,0 km/h (2 Bft)
20.02.2020 02:40 0,4 C -1,1 C 0,7 C 0,4 C 87 % 82 % 87 % 1021,2 hPa 0,0 l/m 5,0 km/h (1 Bft) W 270 -1,5 C -1,1 C 10,1 km/h (2 Bft)
20.02.2020 02:38 0,4 C -1,0 C 0,6 C 0,4 C 87 % 82 % 87 % 1020,9 hPa 0,0 l/m 5,5 km/h (1 Bft) W-NW 292 -1,5 C -1,4 C 10,1 km/h (2 Bft)
20.02.2020 02:36 0,3 C -0,8 C 0,6 C 0,3 C 87 % 82 % 87 % 1020,9 hPa 0,0 l/m 5,1 km/h (1 Bft) SW 225 -1,6 C -1,3 C 13,8 km/h (3 Bft)
20.02.2020 02:34 0,3 C -1,0 C 0,6 C 0,3 C 88 % 82 % 88 % 1020,9 hPa 0,0 l/m 5,3 km/h (1 Bft) W 270 -1,4 C -1,4 C 15,7 km/h (3 Bft)
20.02.2020 02:32 0,3 C -1,1 C 0,7 C 0,3 C 88 % 82 % 88 % 1020,9 hPa 0,0 l/m 5,1 km/h (1 Bft) W 270 -1,4 C -1,3 C 15,7 km/h (3 Bft)
20.02.2020 02:30 0,3 C -1,2 C 0,7 C 0,3 C 87 % 82 % 87 % 1020,9 hPa 0,0 l/m 5,3 km/h (1 Bft) W 270 -1,6 C -1,4 C 5,1 km/h (1 Bft)
20.02.2020 02:28 0,4 C -1,2 C 0,5 C 0,4 C 87 % 82 % 87 % 1020,9 hPa 0,0 l/m 6,1 km/h (2 Bft) S-SW 202 -1,5 C -1,6 C 9,7 km/h (2 Bft)
20.02.2020 02:26 0,4 C -1,4 C 0,5 C 0,4 C 87 % 82 % 87 % 1020,9 hPa 0,0 l/m 6,4 km/h (2 Bft) W 270 -1,5 C -1,7 C 11,1 km/h (2 Bft)
20.02.2020 02:24 0,4 C -1,1 C 0,6 C 0,4 C 87 % 82 % 87 % 1020,9 hPa 0,0 l/m 5,8 km/h (2 Bft) W-NW 292 -1,5 C -1,5 C 13,0 km/h (3 Bft)
20.02.2020 02:22 0,4 C -1,0 C 0,6 C 0,4 C 87 % 82 % 87 % 1020,9 hPa 0,0 l/m 5,3 km/h (1 Bft) W 270 -1,5 C -1,3 C 13,0 km/h (3 Bft)
20.02.2020 02:20 0,4 C -0,8 C 0,5 C 0,4 C 88 % 82 % 88 % 1020,9 hPa 0,0 l/m 3,5 km/h (1 Bft) W-NW 292 -1,3 C 0,4 C 12,6 km/h (3 Bft)
20.02.2020 02:18 0,3 C -1,1 C 0,6 C 0,3 C 88 % 82 % 88 % 1021,1 hPa 0,0 l/m 3,4 km/h (1 Bft) S 180 -1,4 C 0,3 C 16,2 km/h (3 Bft)
20.02.2020 02:16 0,3 C -1,2 C 0,7 C 0,3 C 88 % 82 % 88 % 1021,1 hPa 0,0 l/m 2,9 km/h (1 Bft) N-NW 337 -1,4 C 0,3 C 16,2 km/h (3 Bft)
20.02.2020 02:14 0,4 C -1,1 C 0,7 C 0,4 C 88 % 82 % 88 % 1021,1 hPa 0,0 l/m 3,4 km/h (1 Bft) SW 225 -1,3 C 0,4 C 4,1 km/h (1 Bft)
20.02.2020 02:12 0,3 C -0,8 C 0,7 C 0,3 C 88 % 82 % 88 % 1021,1 hPa 0,0 l/m 4,0 km/h (1 Bft) S-SW 202 -1,4 C 0,3 C 7,5 km/h (2 Bft)
20.02.2020 02:10 0,4 C -1,0 C 0,7 C 0,4 C 88 % 82 % 88 % 1021,1 hPa 0,0 l/m 5,5 km/h (1 Bft) W-SW 247 -1,3 C -1,4 C 7,5 km/h (2 Bft)
20.02.2020 02:08 0,4 C -0,8 C 0,8 C 0,4 C 88 % 82 % 88 % 1021,1 hPa 0,0 l/m 5,5 km/h (1 Bft) W-SW 247 -1,3 C -1,4 C 10,9 km/h (2 Bft)
20.02.2020 02:06 0,5 C -0,8 C 0,7 C 0,5 C 88 % 82 % 88 % 1021,1 hPa 0,0 l/m 5,5 km/h (1 Bft) W 270 -1,3 C -1,2 C 10,9 km/h (2 Bft)
20.02.2020 02:04 0,6 C -0,8 C 0,7 C 0,6 C 87 % 82 % 87 % 1021,1 hPa 0,0 l/m 5,5 km/h (1 Bft) W-NW 292 -1,3 C -1,1 C 15,7 km/h (3 Bft)
20.02.2020 02:02 0,6 C -0,7 C 0,8 C 0,6 C 87 % 82 % 87 % 1021,1 hPa 0,0 l/m 5,5 km/h (1 Bft) W-SW 247 -1,3 C -1,1 C 23,4 km/h (4 Bft)
20.02.2020 02:00 0,4 C -0,8 C 0,8 C 0,4 C 88 % 83 % 88 % 1021,1 hPa 0,0 l/m 5,0 km/h (1 Bft) W 270 -1,3 C -1,1 C 23,4 km/h (4 Bft)
20.02.2020 01:58 0,4 C -1,0 C 0,7 C 0,4 C 88 % 83 % 88 % 1020,9 hPa 0,0 l/m 4,2 km/h (1 Bft) W 270 -1,3 C 0,4 C 7,2 km/h (2 Bft)
20.02.2020 01:56 0,6 C -0,8 C 0,7 C 0,6 C 88 % 83 % 88 % 1020,9 hPa 0,0 l/m 4,2 km/h (1 Bft) W 270 -1,2 C 0,6 C 7,2 km/h (2 Bft)
20.02.2020 01:54 0,5 C -0,7 C 0,7 C 0,5 C 88 % 83 % 88 % 1020,9 hPa 0,0 l/m 4,5 km/h (1 Bft) W 270 -1,3 C 0,5 C 7,0 km/h (2 Bft)
20.02.2020 01:52 0,6 C -0,8 C 0,7 C 0,6 C 88 % 83 % 88 % 1020,9 hPa 0,0 l/m 4,5 km/h (1 Bft) W 270 -1,2 C 0,6 C 12,1 km/h (2 Bft)
20.02.2020 01:50 0,6 C -1,0 C 0,7 C 0,6 C 88 % 83 % 88 % 1020,9 hPa 0,0 l/m 5,0 km/h (1 Bft) W-NW 292 -1,2 C -0,9 C 12,1 km/h (2 Bft)
20.02.2020 01:48 0,6 C -1,0 C 0,7 C 0,6 C 88 % 83 % 88 % 1020,9 hPa 0,0 l/m 6,0 km/h (2 Bft) W 270 -1,2 C -1,3 C 0,0 km/h (0 Bft)
20.02.2020 01:46 0,5 C -0,7 C 0,7 C 0,5 C 88 % 83 % 88 % 1020,9 hPa 0,0 l/m 6,9 km/h (2 Bft) W-NW 292 -1,3 C -1,8 C 10,9 km/h (2 Bft)
20.02.2020 01:44 0,6 C -0,6 C 0,7 C 0,6 C 88 % 83 % 88 % 1020,9 hPa 0,0 l/m 7,2 km/h (2 Bft) W-NW 292 -1,2 C -1,8 C 10,9 km/h (2 Bft)
20.02.2020 01:42 0,6 C -0,6 C 0,7 C 0,6 C 88 % 83 % 88 % 1020,9 hPa 0,0 l/m 7,2 km/h (2 Bft) W-SW 247 -1,2 C -1,8 C 10,4 km/h (2 Bft)
20.02.2020 01:40 0,6 C -0,6 C 0,8 C 0,6 C 88 % 83 % 88 % 1020,9 hPa 0,0 l/m 8,0 km/h (2 Bft) W 270 -1,2 C -2,0 C 20,3 km/h (4 Bft)
20.02.2020 01:38 0,4 C -0,6 C 0,7 C 0,4 C 88 % 83 % 88 % 1020,4 hPa 0,0 l/m 7,9 km/h (2 Bft) W 270 -1,3 C -2,2 C 20,3 km/h (4 Bft)
20.02.2020 01:36 0,4 C -0,7 C 0,7 C 0,4 C 88 % 83 % 88 % 1020,4 hPa 0,0 l/m 6,4 km/h (2 Bft) W-SW 247 -1,3 C -1,7 C 3,4 km/h (1 Bft)
20.02.2020 01:34 0,4 C -0,7 C 0,7 C 0,4 C 88 % 83 % 88 % 1020,4 hPa 0,0 l/m 6,4 km/h (2 Bft) W-SW 247 -1,3 C -1,7 C 25,3 km/h (4 Bft)
20.02.2020 01:32 0,3 C -0,7 C 0,6 C 0,3 C 88 % 83 % 88 % 1020,4 hPa 0,0 l/m 6,0 km/h (2 Bft) W-SW 247 -1,4 C -1,7 C 17,6 km/h (3 Bft)
20.02.2020 01:30 0,3 C -0,8 C 0,7 C 0,3 C 88 % 83 % 88 % 1020,4 hPa 0,0 l/m 4,5 km/h (1 Bft) W 270 -1,4 C 0,3 C 17,6 km/h (3 Bft)
20.02.2020 01:28 0,2 C -1,0 C 0,6 C 0,2 C 88 % 83 % 88 % 1020,4 hPa 0,0 l/m 3,2 km/h (1 Bft) W-NW 292 -1,5 C 0,2 C 7,5 km/h (2 Bft)
20.02.2020 01:26 0,2 C -1,1 C 0,6 C 0,2 C 88 % 83 % 88 % 1020,4 hPa 0,0 l/m 3,2 km/h (1 Bft) S-SW 202 -1,5 C 0,2 C 10,4 km/h (2 Bft)
20.02.2020 01:24 0,2 C -1,1 C 0,6 C 0,2 C 88 % 83 % 88 % 1020,4 hPa 0,0 l/m 3,4 km/h (1 Bft) W-SW 247 -1,5 C 0,2 C 10,6 km/h (2 Bft)
20.02.2020 01:22 0,2 C -1,1 C 0,6 C 0,2 C 88 % 83 % 88 % 1020,4 hPa 0,0 l/m 2,9 km/h (1 Bft) W-SW 247 -1,5 C 0,2 C 10,6 km/h (2 Bft)
20.02.2020 01:20 0,1 C -1,2 C 0,5 C 0,1 C 88 % 83 % 88 % 1020,4 hPa 0,0 l/m 3,4 km/h (1 Bft) N-NW 337 -1,6 C 0,1 C 2,4 km/h (1 Bft)
20.02.2020 01:18 0,1 C -1,2 C 0,5 C 0,1 C 88 % 83 % 88 % 1020,4 hPa 0,0 l/m 4,5 km/h (1 Bft) N-NW 337 -1,6 C 0,1 C 8,0 km/h (2 Bft)
20.02.2020 01:16 0,2 C -1,1 C 0,5 C 0,2 C 88 % 83 % 88 % 1020,4 hPa 0,0 l/m 5,1 km/h (1 Bft) W 270 -1,5 C -1,4 C 8,0 km/h (2 Bft)
20.02.2020 01:14 0,1 C -1,4 C 0,4 C 0,1 C 88 % 83 % 88 % 1020,4 hPa 0,0 l/m 4,8 km/h (1 Bft) N-NW 337 -1,6 C -1,4 C 7,2 km/h (2 Bft)
20.02.2020 01:12 0,2 C -1,4 C 0,4 C 0,2 C 88 % 83 % 88 % 1020,4 hPa 0,0 l/m 5,1 km/h (1 Bft) W-NW 292 -1,5 C -1,4 C 12,8 km/h (3 Bft)
20.02.2020 01:10 0,2 C -1,4 C 0,2 C 0,2 C 88 % 83 % 88 % 1020,4 hPa 0,0 l/m 5,1 km/h (1 Bft) NW 315 -1,5 C -1,4 C 12,8 km/h (3 Bft)
20.02.2020 01:08 0,0 C -1,7 C 0,1 C 0,0 C 88 % 83 % 88 % 1020,4 hPa 0,0 l/m 5,1 km/h (1 Bft) NW 315 -1,7 C -1,6 C 11,6 km/h (2 Bft)
20.02.2020 01:06 -0,1 C -2,6 C 0,1 C -0,1 C 88 % 83 % 88 % 1020,4 hPa 0,0 l/m 5,1 km/h (1 Bft) W 270 -1,8 C -1,7 C 12,6 km/h (3 Bft)
20.02.2020 01:04 0,0 C -2,5 C 0,1 C 0,0 C 88 % 83 % 88 % 1020,4 hPa 0,0 l/m 4,8 km/h (1 Bft) W-SW 247 -1,7 C -1,5 C 12,6 km/h (3 Bft)
20.02.2020 01:02 0,0 C -2,7 C 0,2 C 0,0 C 88 % 83 % 88 % 1020,4 hPa 0,0 l/m 4,5 km/h (1 Bft) W 270 -1,7 C 0,0 C 8,7 km/h (2 Bft)
20.02.2020 01:00 0,0 C -2,1 C 0,1 C 0,0 C 88 % 83 % 88 % 1020,4 hPa 0,0 l/m 4,5 km/h (1 Bft) W-SW 247 -1,7 C 0,0 C 12,1 km/h (2 Bft)
20.02.2020 00:58 0,0 C -2,2 C 0,1 C 0,0 C 88 % 83 % 88 % 1020,2 hPa 0,0 l/m 3,7 km/h (1 Bft) W 270 -1,7 C 0,0 C 12,1 km/h (2 Bft)
20.02.2020 00:56 0,0 C -2,3 C 0,2 C 0,0 C 88 % 83 % 88 % 1020,2 hPa 0,0 l/m 3,2 km/h (1 Bft) O-SO 112 -1,7 C 0,0 C 11,1 km/h (2 Bft)
20.02.2020 00:54 0,0 C -2,6 C 0,2 C 0,0 C 88 % 83 % 88 % 1020,2 hPa 0,0 l/m 3,4 km/h (1 Bft) W-NW 292 -1,7 C 0,0 C 11,1 km/h (2 Bft)
20.02.2020 00:52 0,0 C -2,7 C 0,4 C 0,0 C 88 % 83 % 88 % 1020,2 hPa 0,0 l/m 3,5 km/h (1 Bft) W-SW 247 -1,7 C 0,0 C 6,5 km/h (2 Bft)
20.02.2020 00:50 0,2 C -2,6 C 0,4 C 0,2 C 88 % 83 % 88 % 1020,2 hPa 0,0 l/m 4,0 km/h (1 Bft) S 180 -1,5 C 0,2 C 5,3 km/h (1 Bft)
20.02.2020 00:48 0,1 C -2,1 C 0,5 C 0,1 C 88 % 83 % 88 % 1020,2 hPa 0,0 l/m 4,7 km/h (1 Bft) SW 225 -1,6 C -1,3 C 3,6 km/h (1 Bft)
20.02.2020 00:46 0,2 C -1,5 C 0,5 C 0,2 C 88 % 83 % 88 % 1020,2 hPa 0,0 l/m 5,6 km/h (1 Bft) SO 135 -1,5 C -1,6 C 13,0 km/h (3 Bft)
20.02.2020 00:44 0,2 C -1,5 C 0,5 C 0,2 C 88 % 83 % 88 % 1020,2 hPa 0,0 l/m 6,1 km/h (2 Bft) W 270 -1,5 C -1,8 C 13,0 km/h (3 Bft)
20.02.2020 00:42 0,2 C -1,5 C 0,5 C 0,2 C 88 % 83 % 88 % 1020,2 hPa 0,0 l/m 6,1 km/h (2 Bft) SW 225 -1,5 C -1,8 C 10,9 km/h (2 Bft)
20.02.2020 00:40 0,2 C -1,7 C 0,5 C 0,2 C 88 % 83 % 88 % 1020,2 hPa 0,0 l/m 6,1 km/h (2 Bft) S-SW 202 -1,5 C -1,8 C 12,6 km/h (3 Bft)
20.02.2020 00:38 0,2 C -1,2 C 0,5 C 0,2 C 88 % 83 % 88 % 1019,9 hPa 0,0 l/m 6,3 km/h (2 Bft) W 270 -1,5 C -1,9 C 13,3 km/h (3 Bft)
20.02.2020 00:36 0,2 C -1,5 C 0,5 C 0,2 C 88 % 83 % 88 % 1019,9 hPa 0,0 l/m 6,1 km/h (2 Bft) W 270 -1,5 C -1,8 C 13,3 km/h (3 Bft)
20.02.2020 00:34 0,1 C -1,4 C 0,5 C 0,1 C 88 % 83 % 88 % 1019,9 hPa 0,0 l/m 6,0 km/h (2 Bft) S 180 -1,6 C -1,9 C 10,9 km/h (2 Bft)
20.02.2020 00:32 0,1 C -1,5 C 0,5 C 0,1 C 88 % 84 % 88 % 1019,9 hPa 0,0 l/m 5,5 km/h (1 Bft) W 270 -1,6 C -1,7 C 11,6 km/h (2 Bft)
20.02.2020 00:30 0,2 C -1,5 C 0,5 C 0,2 C 88 % 83 % 88 % 1019,9 hPa 0,0 l/m 5,6 km/h (1 Bft) SW 225 -1,5 C -1,6 C 12,1 km/h (2 Bft)
20.02.2020 00:28 0,2 C -1,8 C 0,5 C 0,2 C 88 % 83 % 88 % 1019,9 hPa 0,0 l/m 6,0 km/h (2 Bft) W-SW 247 -1,5 C -1,8 C 12,1 km/h (2 Bft)
20.02.2020 00:26 0,2 C -1,8 C 0,4 C 0,2 C 88 % 83 % 88 % 1019,9 hPa 0,0 l/m 6,3 km/h (2 Bft) W-SW 247 -1,5 C -1,9 C 11,8 km/h (2 Bft)
20.02.2020 00:24 0,2 C -1,7 C 0,4 C 0,2 C 88 % 83 % 88 % 1019,9 hPa 0,0 l/m 6,4 km/h (2 Bft) SW 225 -1,5 C -2,0 C 19,3 km/h (3 Bft)
20.02.2020 00:22 0,2 C -1,5 C 0,2 C 0,2 C 88 % 83 % 88 % 1019,9 hPa 0,0 l/m 6,6 km/h (2 Bft) W-SW 247 -1,5 C -2,0 C 10,6 km/h (2 Bft)
20.02.2020 00:20 0,1 C -1,5 C 0,1 C 0,2 C 88 % 83 % 88 % 1019,9 hPa 0,0 l/m 6,4 km/h (2 Bft) W 270 -1,5 C -2,1 C 14,0 km/h (3 Bft)
20.02.2020 00:18 0,1 C -1,5 C 0,2 C 0,1 C 88 % 83 % 88 % 1019,4 hPa 0,0 l/m 6,4 km/h (2 Bft) W-NW 292 -1,6 C -2,1 C 14,0 km/h (3 Bft)
20.02.2020 00:16 0,1 C -1,7 C 0,2 C 0,1 C 88 % 83 % 88 % 1019,4 hPa 0,0 l/m 6,6 km/h (2 Bft) W 270 -1,6 C -2,1 C 19,3 km/h (3 Bft)
20.02.2020 00:14 0,1 C -1,8 C 0,2 C 0,1 C 88 % 83 % 88 % 1019,4 hPa 0,0 l/m 6,4 km/h (2 Bft) W 270 -1,6 C -2,1 C 19,3 km/h (3 Bft)
20.02.2020 00:12 0,2 C -1,8 C 0,2 C 0,2 C 88 % 83 % 88 % 1019,4 hPa 0,0 l/m 6,8 km/h (2 Bft) W 270 -1,5 C -2,1 C 12,3 km/h (3 Bft)
20.02.2020 00:10 0,4 C -1,5 C 0,5 C 0,4 C 88 % 83 % 88 % 1019,4 hPa 0,0 l/m 6,8 km/h (2 Bft) W-NW 292 -1,3 C -1,9 C 12,3 km/h (3 Bft)
20.02.2020 00:08 0,4 C -1,5 C 0,5 C 0,4 C 88 % 83 % 88 % 1019,4 hPa 0,0 l/m 6,8 km/h (2 Bft) W-NW 292 -1,3 C -1,9 C 12,3 km/h (3 Bft)
20.02.2020 00:06 0,4 C -1,5 C 0,5 C 0,4 C 88 % 83 % 88 % 1019,4 hPa 0,0 l/m 6,8 km/h (2 Bft) W-NW 292 -1,3 C -1,9 C 12,3 km/h (3 Bft)
20.02.2020 00:04 0,4 C -1,5 C 0,5 C 0,4 C 88 % 83 % 88 % 1019,4 hPa 0,0 l/m 6,8 km/h (2 Bft) W-NW 292 -1,3 C -1,9 C 12,3 km/h (3 Bft)
20.02.2020 00:02 0,4 C -1,5 C 0,5 C 0,4 C 88 % 83 % 88 % 1019,4 hPa 0,0 l/m 6,8 km/h (2 Bft) W-NW 292 -1,3 C -1,9 C 12,3 km/h (3 Bft)
20.02.2020 00:00 0,3 C -1,4 C 0,4 C 0,3 C 88 % 83 % 88 % 1019,4 hPa 0,0 l/m 6,8 km/h (2 Bft) W 270 -1,4 C -2,0 C 7,5 km/h (2 Bft)
_ Min-Zeit 06:12 06:12 06:12 06:20 02:02 02:02 02:02 00:00 - 06:12 - - 06:18 06:12 01:48
Minimum _ -5,5 C -7,8 C -5,5 C -4,6 C 87 % 82 % 87 % 1019,4 hPa - 0,2 km/h (0 Bft) - - -6,0 C -5,5 C 0,0 km/h (0 Bft)
_ Max-Zeit 01:40 01:38 01:40 01:40 05:46 00:32 05:46 06:00 00:00 01:40 - - 01:40 01:52 01:34
Maximum _ 0,6 C -0,6 C 0,8 C 0,6 C 90 % 84 % 90 % 1021,7 hPa 0,0 l/m 8,0 km/h
W (2 Bft)
- - -1,2 C 0,6 C 25,3 km/h
W-SW (4 Bft)
Durchschnitt _ -0,7 C -2,8 C -0,6 C -0,4 C 88 % 82 % 88 % 1020,9 hPa #0,0 l/m 3,8 km/h (1 Bft) W - -2,2 C -1,5 C 8,6 km/h (2 Bft)